sensor_id;sensor_type;location;lat;lon;timestamp;temperature;humidity
31735;DHT22;18313;48.518;9.124;2022-08-01T00:00:36;20.20;90.10
31735;DHT22;18313;48.518;9.124;2022-08-01T00:03:03;20.00;90.50
31735;DHT22;18313;48.518;9.124;2022-08-01T00:05:31;19.90;90.70
31735;DHT22;18313;48.518;9.124;2022-08-01T00:07:58;19.90;90.90
31735;DHT22;18313;48.518;9.124;2022-08-01T00:10:25;19.80;91.10
31735;DHT22;18313;48.518;9.124;2022-08-01T00:12:52;19.80;91.10
31735;DHT22;18313;48.518;9.124;2022-08-01T00:15:19;19.90;90.40
31735;DHT22;18313;48.518;9.124;2022-08-01T00:17:46;19.90;91.30
31735;DHT22;18313;48.518;9.124;2022-08-01T00:20:14;19.70;91.20
31735;DHT22;18313;48.518;9.124;2022-08-01T00:22:41;19.70;91.10
31735;DHT22;18313;48.518;9.124;2022-08-01T00:25:08;19.70;91.50
31735;DHT22;18313;48.518;9.124;2022-08-01T00:27:35;19.60;91.50
31735;DHT22;18313;48.518;9.124;2022-08-01T00:30:04;19.60;91.70
31735;DHT22;18313;48.518;9.124;2022-08-01T00:32:40;19.50;92.00
31735;DHT22;18313;48.518;9.124;2022-08-01T00:35:07;19.40;92.40
31735;DHT22;18313;48.518;9.124;2022-08-01T00:37:34;19.40;92.60
31735;DHT22;18313;48.518;9.124;2022-08-01T00:40:02;19.40;92.70
31735;DHT22;18313;48.518;9.124;2022-08-01T00:42:29;19.30;92.90
31735;DHT22;18313;48.518;9.124;2022-08-01T00:44:55;19.40;92.80
31735;DHT22;18313;48.518;9.124;2022-08-01T00:47:22;19.30;93.10
31735;DHT22;18313;48.518;9.124;2022-08-01T00:49:49;19.30;93.20
31735;DHT22;18313;48.518;9.124;2022-08-01T00:52:16;19.30;93.00
31735;DHT22;18313;48.518;9.124;2022-08-01T00:54:43;19.30;92.80
31735;DHT22;18313;48.518;9.124;2022-08-01T00:57:11;19.30;93.30
31735;DHT22;18313;48.518;9.124;2022-08-01T00:59:41;19.40;93.80
31735;DHT22;18313;48.518;9.124;2022-08-01T01:02:10;19.40;93.00
31735;DHT22;18313;48.518;9.124;2022-08-01T01:04:42;19.30;93.10
31735;DHT22;18313;48.518;9.124;2022-08-01T01:07:34;19.20;93.50
31735;DHT22;18313;48.518;9.124;2022-08-01T01:15:26;19.10;94.70
31735;DHT22;18313;48.518;9.124;2022-08-01T01:17:58;19.00;94.80
31735;DHT22;18313;48.518;9.124;2022-08-01T01:20:34;19.00;94.60
31735;DHT22;18313;48.518;9.124;2022-08-01T01:34:17;19.00;95.10
31735;DHT22;18313;48.518;9.124;2022-08-01T01:36:46;19.00;95.50
31735;DHT22;18313;48.518;9.124;2022-08-01T01:39:15;19.00;95.50
31735;DHT22;18313;48.518;9.124;2022-08-01T01:41:44;19.00;95.60
31735;DHT22;18313;48.518;9.124;2022-08-01T01:44:12;19.10;95.30
31735;DHT22;18313;48.518;9.124;2022-08-01T01:46:41;19.10;95.30
31735;DHT22;18313;48.518;9.124;2022-08-01T01:49:08;19.20;95.50
31735;DHT22;18313;48.518;9.124;2022-08-01T01:51:41;19.20;95.30
31735;DHT22;18313;48.518;9.124;2022-08-01T01:54:25;19.20;95.40
31735;DHT22;18313;48.518;9.124;2022-08-01T01:56:57;19.30;95.40
31735;DHT22;18313;48.518;9.124;2022-08-01T01:59:28;19.30;95.40
31735;DHT22;18313;48.518;9.124;2022-08-01T02:01:59;19.20;95.40
31735;DHT22;18313;48.518;9.124;2022-08-01T02:04:35;19.20;95.50
31735;DHT22;18313;48.518;9.124;2022-08-01T02:07:03;19.30;95.70
31735;DHT22;18313;48.518;9.124;2022-08-01T02:09:34;19.30;95.70
31735;DHT22;18313;48.518;9.124;2022-08-01T02:12:02;19.30;95.70
31735;DHT22;18313;48.518;9.124;2022-08-01T02:14:35;19.30;96.00
31735;DHT22;18313;48.518;9.124;2022-08-01T02:17:03;19.30;95.90
31735;DHT22;18313;48.518;9.124;2022-08-01T02:19:32;19.20;96.10
31735;DHT22;18313;48.518;9.124;2022-08-01T02:22:05;19.10;96.10
31735;DHT22;18313;48.518;9.124;2022-08-01T02:24:49;19.20;96.30
31735;DHT22;18313;48.518;9.124;2022-08-01T02:27:21;19.10;96.40
31735;DHT22;18313;48.518;9.124;2022-08-01T02:29:54;19.00;96.80
31735;DHT22;18313;48.518;9.124;2022-08-01T02:32:31;18.90;97.10
31735;DHT22;18313;48.518;9.124;2022-08-01T02:35:01;18.90;97.40
31735;DHT22;18313;48.518;9.124;2022-08-01T02:37:33;18.80;97.60
31735;DHT22;18313;48.518;9.124;2022-08-01T02:40:01;18.70;97.90
31735;DHT22;18313;48.518;9.124;2022-08-01T02:42:29;18.60;98.00
31735;DHT22;18313;48.518;9.124;2022-08-01T02:44:57;18.60;98.00
31735;DHT22;18313;48.518;9.124;2022-08-01T02:47:26;18.60;98.40
31735;DHT22;18313;48.518;9.124;2022-08-01T02:49:54;18.40;98.60
31735;DHT22;18313;48.518;9.124;2022-08-01T02:52:23;18.40;98.80
31735;DHT22;18313;48.518;9.124;2022-08-01T02:54:54;18.30;99.60
31735;DHT22;18313;48.518;9.124;2022-08-01T02:57:21;18.30;99.90
31735;DHT22;18313;48.518;9.124;2022-08-01T03:00:01;18.20;99.90
31735;DHT22;18313;48.518;9.124;2022-08-01T03:02:29;18.20;99.90
31735;DHT22;18313;48.518;9.124;2022-08-01T03:04:57;18.20;99.90
31735;DHT22;18313;48.518;9.124;2022-08-01T03:07:26;18.20;99.90
31735;DHT22;18313;48.518;9.124;2022-08-01T03:10:08;18.10;99.90
31735;DHT22;18313;48.518;9.124;2022-08-01T03:12:38;18.10;99.90
31735;DHT22;18313;48.518;9.124;2022-08-01T03:15:07;18.00;99.90
31735;DHT22;18313;48.518;9.124;2022-08-01T03:17:37;17.90;99.90
31735;DHT22;18313;48.518;9.124;2022-08-01T03:20:08;17.90;99.90
31735;DHT22;18313;48.518;9.124;2022-08-01T03:22:38;17.70;99.90
31735;DHT22;18313;48.518;9.124;2022-08-01T03:25:06;17.60;99.90
31735;DHT22;18313;48.518;9.124;2022-08-01T03:27:36;17.50;99.90
31735;DHT22;18313;48.518;9.124;2022-08-01T03:30:04;17.40;99.90
31735;DHT22;18313;48.518;9.124;2022-08-01T03:32:32;17.30;99.90
31735;DHT22;18313;48.518;9.124;2022-08-01T03:34:59;17.20;99.90
31735;DHT22;18313;48.518;9.124;2022-08-01T03:37:42;17.20;99.90
31735;DHT22;18313;48.518;9.124;2022-08-01T03:40:37;17.10;99.90
31735;DHT22;18313;48.518;9.124;2022-08-01T03:43:34;17.10;99.90
31735;DHT22;18313;48.518;9.124;2022-08-01T03:46:07;17.20;99.90
31735;DHT22;18313;48.518;9.124;2022-08-01T03:48:38;17.10;99.90
31735;DHT22;18313;48.518;9.124;2022-08-01T03:51:07;17.10;99.90
31735;DHT22;18313;48.518;9.124;2022-08-01T03:53:36;17.00;99.90
31735;DHT22;18313;48.518;9.124;2022-08-01T03:56:08;17.00;99.90
31735;DHT22;18313;48.518;9.124;2022-08-01T03:58:38;17.00;99.90
31735;DHT22;18313;48.518;9.124;2022-08-01T04:01:06;16.90;99.90
31735;DHT22;18313;48.518;9.124;2022-08-01T04:03:42;16.90;99.90
31735;DHT22;18313;48.518;9.124;2022-08-01T04:06:10;16.80;99.90
31735;DHT22;18313;48.518;9.124;2022-08-01T04:08:38;16.70;99.90
31735;DHT22;18313;48.518;9.124;2022-08-01T04:11:07;16.70;99.90
31735;DHT22;18313;48.518;9.124;2022-08-01T04:13:34;16.70;99.90
31735;DHT22;18313;48.518;9.124;2022-08-01T04:16:03;16.70;99.90
31735;DHT22;18313;48.518;9.124;2022-08-01T04:18:30;16.70;99.90
31735;DHT22;18313;48.518;9.124;2022-08-01T04:20:57;16.80;99.90
31735;DHT22;18313;48.518;9.124;2022-08-01T04:23:25;16.80;99.90
31735;DHT22;18313;48.518;9.124;2022-08-01T04:25:54;16.70;99.90
31735;DHT22;18313;48.518;9.124;2022-08-01T04:28:22;16.80;99.90
31735;DHT22;18313;48.518;9.124;2022-08-01T04:30:53;16.70;99.90
31735;DHT22;18313;48.518;9.124;2022-08-01T04:33:28;16.70;99.90
31735;DHT22;18313;48.518;9.124;2022-08-01T04:35:58;16.90;99.90
31735;DHT22;18313;48.518;9.124;2022-08-01T04:38:32;16.80;99.90
31735;DHT22;18313;48.518;9.124;2022-08-01T04:41:00;16.80;99.90
31735;DHT22;18313;48.518;9.124;2022-08-01T04:43:36;16.80;99.90
31735;DHT22;18313;48.518;9.124;2022-08-01T04:46:03;16.90;99.90
31735;DHT22;18313;48.518;9.124;2022-08-01T04:48:33;16.90;99.90
31735;DHT22;18313;48.518;9.124;2022-08-01T04:51:01;16.90;99.90
31735;DHT22;18313;48.518;9.124;2022-08-01T04:53:28;16.90;99.90
31735;DHT22;18313;48.518;9.124;2022-08-01T04:55:55;17.10;99.90
31735;DHT22;18313;48.518;9.124;2022-08-01T04:58:22;17.00;99.90
31735;DHT22;18313;48.518;9.124;2022-08-01T05:00:49;17.10;99.90
31735;DHT22;18313;48.518;9.124;2022-08-01T05:03:16;17.10;99.90
31735;DHT22;18313;48.518;9.124;2022-08-01T05:05:44;17.20;99.90
31735;DHT22;18313;48.518;9.124;2022-08-01T05:08:11;17.50;99.90
31735;DHT22;18313;48.518;9.124;2022-08-01T05:10:38;17.80;99.90
31735;DHT22;18313;48.518;9.124;2022-08-01T05:13:05;17.90;99.90
31735;DHT22;18313;48.518;9.124;2022-08-01T05:15:35;18.00;99.90
31735;DHT22;18313;48.518;9.124;2022-08-01T05:18:04;18.30;99.90
31735;DHT22;18313;48.518;9.124;2022-08-01T05:20:33;18.50;99.90
31735;DHT22;18313;48.518;9.124;2022-08-01T05:23:00;18.60;99.90
31735;DHT22;18313;48.518;9.124;2022-08-01T05:25:27;18.70;99.90
31735;DHT22;18313;48.518;9.124;2022-08-01T05:28:15;18.80;99.90
31735;DHT22;18313;48.518;9.124;2022-08-01T05:30:45;19.00;99.90
31735;DHT22;18313;48.518;9.124;2022-08-01T05:33:12;19.10;99.90
31735;DHT22;18313;48.518;9.124;2022-08-01T05:35:39;19.10;99.90
31735;DHT22;18313;48.518;9.124;2022-08-01T05:38:15;19.30;99.90
31735;DHT22;18313;48.518;9.124;2022-08-01T05:40:42;19.40;99.90
31735;DHT22;18313;48.518;9.124;2022-08-01T05:43:09;19.50;99.90
31735;DHT22;18313;48.518;9.124;2022-08-01T05:45:36;19.50;99.90
31735;DHT22;18313;48.518;9.124;2022-08-01T05:48:03;19.50;99.90
31735;DHT22;18313;48.518;9.124;2022-08-01T05:50:30;19.50;99.90
31735;DHT22;18313;48.518;9.124;2022-08-01T05:52:57;19.60;99.90
31735;DHT22;18313;48.518;9.124;2022-08-01T05:55:24;19.60;99.90
31735;DHT22;18313;48.518;9.124;2022-08-01T05:57:51;19.70;99.90
31735;DHT22;18313;48.518;9.124;2022-08-01T06:00:18;19.70;99.90
31735;DHT22;18313;48.518;9.124;2022-08-01T06:02:45;19.80;99.90
31735;DHT22;18313;48.518;9.124;2022-08-01T06:05:13;19.90;99.90
31735;DHT22;18313;48.518;9.124;2022-08-01T06:07:40;19.90;99.90
31735;DHT22;18313;48.518;9.124;2022-08-01T06:10:08;19.90;99.90
31735;DHT22;18313;48.518;9.124;2022-08-01T06:12:35;19.80;99.90
31735;DHT22;18313;48.518;9.124;2022-08-01T06:15:04;19.80;99.90
31735;DHT22;18313;48.518;9.124;2022-08-01T06:17:31;19.80;99.90
31735;DHT22;18313;48.518;9.124;2022-08-01T06:19:58;19.80;99.90
31735;DHT22;18313;48.518;9.124;2022-08-01T06:22:26;20.00;99.90
31735;DHT22;18313;48.518;9.124;2022-08-01T06:24:53;20.10;99.90
31735;DHT22;18313;48.518;9.124;2022-08-01T06:27:20;20.10;99.90
31735;DHT22;18313;48.518;9.124;2022-08-01T06:29:48;20.20;99.90
31735;DHT22;18313;48.518;9.124;2022-08-01T06:32:23;20.30;99.90
31735;DHT22;18313;48.518;9.124;2022-08-01T06:34:54;20.40;99.90
31735;DHT22;18313;48.518;9.124;2022-08-01T06:37:22;20.50;99.90
31735;DHT22;18313;48.518;9.124;2022-08-01T06:39:49;20.60;99.90
31735;DHT22;18313;48.518;9.124;2022-08-01T06:42:17;20.70;99.90
31735;DHT22;18313;48.518;9.124;2022-08-01T06:44:44;20.80;99.90
31735;DHT22;18313;48.518;9.124;2022-08-01T06:47:12;20.90;99.90
31735;DHT22;18313;48.518;9.124;2022-08-01T06:49:39;21.00;99.90
31735;DHT22;18313;48.518;9.124;2022-08-01T06:52:06;21.10;99.90
31735;DHT22;18313;48.518;9.124;2022-08-01T06:54:34;21.20;99.90
31735;DHT22;18313;48.518;9.124;2022-08-01T06:57:05;21.30;99.90
31735;DHT22;18313;48.518;9.124;2022-08-01T06:59:32;21.40;99.90
31735;DHT22;18313;48.518;9.124;2022-08-01T07:01:59;21.40;99.90
31735;DHT22;18313;48.518;9.124;2022-08-01T07:04:28;21.50;99.90
31735;DHT22;18313;48.518;9.124;2022-08-01T07:06:55;21.50;99.90
31735;DHT22;18313;48.518;9.124;2022-08-01T07:09:22;21.60;99.90
31735;DHT22;18313;48.518;9.124;2022-08-01T07:11:49;21.70;99.90
31735;DHT22;18313;48.518;9.124;2022-08-01T07:14:17;21.90;99.90
31735;DHT22;18313;48.518;9.124;2022-08-01T07:16:44;22.10;99.90
31735;DHT22;18313;48.518;9.124;2022-08-01T07:19:11;22.30;99.60
31735;DHT22;18313;48.518;9.124;2022-08-01T07:21:39;22.50;99.70
31735;DHT22;18313;48.518;9.124;2022-08-01T07:24:09;22.60;99.20
31735;DHT22;18313;48.518;9.124;2022-08-01T07:26:45;22.80;99.40
31735;DHT22;18313;48.518;9.124;2022-08-01T07:29:26;23.00;99.20
31735;DHT22;18313;48.518;9.124;2022-08-01T07:31:55;23.10;98.30
31735;DHT22;18313;48.518;9.124;2022-08-01T07:34:24;23.30;98.50
31735;DHT22;18313;48.518;9.124;2022-08-01T07:36:51;23.50;97.90
31735;DHT22;18313;48.518;9.124;2022-08-01T07:39:19;23.70;98.00
31735;DHT22;18313;48.518;9.124;2022-08-01T07:41:46;23.80;97.70
31735;DHT22;18313;48.518;9.124;2022-08-01T07:44:32;24.00;97.30
31735;DHT22;18313;48.518;9.124;2022-08-01T07:46:59;24.30;97.00
31735;DHT22;18313;48.518;9.124;2022-08-01T07:49:26;24.20;96.80
31735;DHT22;18313;48.518;9.124;2022-08-01T07:51:53;24.30;97.10
31735;DHT22;18313;48.518;9.124;2022-08-01T07:54:31;24.60;96.40
31735;DHT22;18313;48.518;9.124;2022-08-01T07:57:01;24.80;96.00
31735;DHT22;18313;48.518;9.124;2022-08-01T07:59:28;24.90;96.10
31735;DHT22;18313;48.518;9.124;2022-08-01T08:01:55;24.90;96.10
31735;DHT22;18313;48.518;9.124;2022-08-01T08:04:22;25.00;95.90
31735;DHT22;18313;48.518;9.124;2022-08-01T08:06:49;25.30;95.80
31735;DHT22;18313;48.518;9.124;2022-08-01T08:09:16;25.50;95.80
31735;DHT22;18313;48.518;9.124;2022-08-01T08:11:44;25.70;95.00
31735;DHT22;18313;48.518;9.124;2022-08-01T08:14:14;25.90;94.90
31735;DHT22;18313;48.518;9.124;2022-08-01T08:16:42;26.20;94.70
31735;DHT22;18313;48.518;9.124;2022-08-01T08:19:09;26.30;94.40
31735;DHT22;18313;48.518;9.124;2022-08-01T08:21:37;26.40;94.00
31735;DHT22;18313;48.518;9.124;2022-08-01T08:24:05;26.60;93.90
31735;DHT22;18313;48.518;9.124;2022-08-01T08:26:55;26.70;93.70
31735;DHT22;18313;48.518;9.124;2022-08-01T08:29:22;26.80;92.90
31735;DHT22;18313;48.518;9.124;2022-08-01T08:31:50;26.90;93.00
31735;DHT22;18313;48.518;9.124;2022-08-01T08:34:29;27.10;93.30
31735;DHT22;18313;48.518;9.124;2022-08-01T08:36:57;27.30;92.90
31735;DHT22;18313;48.518;9.124;2022-08-01T08:39:25;27.60;92.30
31735;DHT22;18313;48.518;9.124;2022-08-01T08:41:52;27.70;92.40
31735;DHT22;18313;48.518;9.124;2022-08-01T08:44:20;27.90;91.20
31735;DHT22;18313;48.518;9.124;2022-08-01T08:46:50;28.00;92.00
31735;DHT22;18313;48.518;9.124;2022-08-01T08:49:22;28.10;91.90
31735;DHT22;18313;48.518;9.124;2022-08-01T08:51:51;28.40;91.00
31735;DHT22;18313;48.518;9.124;2022-08-01T08:54:21;28.40;91.10
31735;DHT22;18313;48.518;9.124;2022-08-01T08:56:58;28.50;91.30
31735;DHT22;18313;48.518;9.124;2022-08-01T08:59:26;28.70;91.00
31735;DHT22;18313;48.518;9.124;2022-08-01T09:01:53;28.90;90.60
31735;DHT22;18313;48.518;9.124;2022-08-01T09:04:21;29.00;88.90
31735;DHT22;18313;48.518;9.124;2022-08-01T09:06:52;29.20;89.90
31735;DHT22;18313;48.518;9.124;2022-08-01T09:09:20;29.50;89.90
31735;DHT22;18313;48.518;9.124;2022-08-01T09:11:47;29.40;88.00
31735;DHT22;18313;48.518;9.124;2022-08-01T09:14:24;29.50;90.00
31735;DHT22;18313;48.518;9.124;2022-08-01T09:17:07;29.80;89.00
31735;DHT22;18313;48.518;9.124;2022-08-01T09:22:09;30.30;86.40
31735;DHT22;18313;48.518;9.124;2022-08-01T09:24:37;30.60;86.60
31735;DHT22;18313;48.518;9.124;2022-08-01T09:27:19;30.80;84.80
31735;DHT22;18313;48.518;9.124;2022-08-01T09:29:48;30.90;82.00
31735;DHT22;18313;48.518;9.124;2022-08-01T09:32:30;31.00;81.90
31735;DHT22;18313;48.518;9.124;2022-08-01T09:40:54;31.40;81.60
31735;DHT22;18313;48.518;9.124;2022-08-01T09:43:25;31.50;81.00
31735;DHT22;18313;48.518;9.124;2022-08-01T09:45:56;31.60;78.60
31735;DHT22;18313;48.518;9.124;2022-08-01T09:48:24;31.80;81.60
31735;DHT22;18313;48.518;9.124;2022-08-01T09:50:56;31.90;79.10
31735;DHT22;18313;48.518;9.124;2022-08-01T09:53:47;32.10;79.60
31735;DHT22;18313;48.518;9.124;2022-08-01T09:56:20;32.50;77.90
31735;DHT22;18313;48.518;9.124;2022-08-01T10:01:26;32.30;76.50
31735;DHT22;18313;48.518;9.124;2022-08-01T10:04:12;32.50;77.40
31735;DHT22;18313;48.518;9.124;2022-08-01T10:06:42;32.60;76.30
31735;DHT22;18313;48.518;9.124;2022-08-01T10:09:12;32.70;75.90
31735;DHT22;18313;48.518;9.124;2022-08-01T10:11:42;32.60;76.40
31735;DHT22;18313;48.518;9.124;2022-08-01T10:14:11;32.60;76.40
31735;DHT22;18313;48.518;9.124;2022-08-01T10:16:44;32.50;75.50
31735;DHT22;18313;48.518;9.124;2022-08-01T10:19:22;32.20;74.40
31735;DHT22;18313;48.518;9.124;2022-08-01T10:21:53;31.50;75.50
31735;DHT22;18313;48.518;9.124;2022-08-01T10:24:26;30.70;76.50
31735;DHT22;18313;48.518;9.124;2022-08-01T10:27:04;30.30;78.00
31735;DHT22;18313;48.518;9.124;2022-08-01T10:29:45;30.30;78.20
31735;DHT22;18313;48.518;9.124;2022-08-01T10:32:34;30.60;77.60
31735;DHT22;18313;48.518;9.124;2022-08-01T10:35:06;30.80;77.40
31735;DHT22;18313;48.518;9.124;2022-08-01T10:37:41;30.60;77.70
31735;DHT22;18313;48.518;9.124;2022-08-01T10:40:18;30.60;77.40
31735;DHT22;18313;48.518;9.124;2022-08-01T10:42:57;30.70;78.70
31735;DHT22;18313;48.518;9.124;2022-08-01T10:45:25;31.00;76.70
31735;DHT22;18313;48.518;9.124;2022-08-01T10:48:30;30.90;78.00
31735;DHT22;18313;48.518;9.124;2022-08-01T10:51:01;31.00;77.10
31735;DHT22;18313;48.518;9.124;2022-08-01T10:53:28;30.90;76.50
31735;DHT22;18313;48.518;9.124;2022-08-01T10:56:08;30.70;75.90
31735;DHT22;18313;48.518;9.124;2022-08-01T10:58:42;30.20;77.80
31735;DHT22;18313;48.518;9.124;2022-08-01T11:01:29;30.10;78.10
31735;DHT22;18313;48.518;9.124;2022-08-01T11:09:24;30.50;77.90
31735;DHT22;18313;48.518;9.124;2022-08-01T11:12:09;30.70;77.70
31735;DHT22;18313;48.518;9.124;2022-08-01T11:28:32;29.80;76.60
31735;DHT22;18313;48.518;9.124;2022-08-01T11:41:14;30.10;79.30
31735;DHT22;18313;48.518;9.124;2022-08-01T11:52:18;29.10;80.10
31735;DHT22;18313;48.518;9.124;2022-08-01T11:54:54;28.70;80.00
31735;DHT22;18313;48.518;9.124;2022-08-01T11:57:25;28.30;81.40
31735;DHT22;18313;48.518;9.124;2022-08-01T12:00:04;28.20;82.30
31735;DHT22;18313;48.518;9.124;2022-08-01T12:02:35;28.00;81.60
31735;DHT22;18313;48.518;9.124;2022-08-01T12:05:06;27.90;81.30
31735;DHT22;18313;48.518;9.124;2022-08-01T12:07:35;28.00;82.00
31735;DHT22;18313;48.518;9.124;2022-08-01T12:10:08;28.00;82.80
31735;DHT22;18313;48.518;9.124;2022-08-01T12:12:36;28.00;83.80
31735;DHT22;18313;48.518;9.124;2022-08-01T12:15:08;28.00;83.70
31735;DHT22;18313;48.518;9.124;2022-08-01T12:17:47;28.10;83.50
31735;DHT22;18313;48.518;9.124;2022-08-01T12:20:36;28.00;83.70
31735;DHT22;18313;48.518;9.124;2022-08-01T12:23:08;28.10;83.50
31735;DHT22;18313;48.518;9.124;2022-08-01T12:25:36;28.30;83.40
31735;DHT22;18313;48.518;9.124;2022-08-01T12:28:05;28.60;85.30
31735;DHT22;18313;48.518;9.124;2022-08-01T12:30:34;28.90;83.00
31735;DHT22;18313;48.518;9.124;2022-08-01T12:33:04;29.30;83.60
31735;DHT22;18313;48.518;9.124;2022-08-01T12:35:32;29.40;81.10
31735;DHT22;18313;48.518;9.124;2022-08-01T12:38:06;29.50;82.90
31735;DHT22;18313;48.518;9.124;2022-08-01T12:40:35;30.00;82.20
31735;DHT22;18313;48.518;9.124;2022-08-01T12:43:08;30.40;80.20
31735;DHT22;18313;48.518;9.124;2022-08-01T12:45:49;30.60;79.90
31735;DHT22;18313;48.518;9.124;2022-08-01T12:48:24;30.80;79.60
31735;DHT22;18313;48.518;9.124;2022-08-01T12:50:52;31.00;78.50
31735;DHT22;18313;48.518;9.124;2022-08-01T12:53:20;30.80;77.60
31735;DHT22;18313;48.518;9.124;2022-08-01T12:55:52;30.70;79.80
31735;DHT22;18313;48.518;9.124;2022-08-01T12:58:29;30.70;79.80
31735;DHT22;18313;48.518;9.124;2022-08-01T13:01:05;30.90;80.70
31735;DHT22;18313;48.518;9.124;2022-08-01T13:03:33;31.40;78.60
31735;DHT22;18313;48.518;9.124;2022-08-01T13:06:01;31.40;79.10
31735;DHT22;18313;48.518;9.124;2022-08-01T13:08:33;31.50;77.60
31735;DHT22;18313;48.518;9.124;2022-08-01T13:11:08;31.80;78.40
31735;DHT22;18313;48.518;9.124;2022-08-01T13:16:08;31.90;78.20
31735;DHT22;18313;48.518;9.124;2022-08-01T13:18:49;32.10;78.20
31735;DHT22;18313;48.518;9.124;2022-08-01T13:21:28;32.20;75.20
31735;DHT22;18313;48.518;9.124;2022-08-01T13:24:15;32.80;78.20
31735;DHT22;18313;48.518;9.124;2022-08-01T13:26:54;33.50;73.40
31735;DHT22;18313;48.518;9.124;2022-08-01T13:29:35;33.70;72.70
31735;DHT22;18313;48.518;9.124;2022-08-01T13:32:15;34.00;71.70
31735;DHT22;18313;48.518;9.124;2022-08-01T13:35:03;34.10;72.20
31735;DHT22;18313;48.518;9.124;2022-08-01T13:37:31;33.20;72.10
31735;DHT22;18313;48.518;9.124;2022-08-01T13:39:59;32.30;73.10
31735;DHT22;18313;48.518;9.124;2022-08-01T13:42:27;32.00;74.20
31735;DHT22;18313;48.518;9.124;2022-08-01T13:44:55;31.60;75.90
31735;DHT22;18313;48.518;9.124;2022-08-01T13:47:22;31.40;75.40
31735;DHT22;18313;48.518;9.124;2022-08-01T13:50:02;31.50;77.00
31735;DHT22;18313;48.518;9.124;2022-08-01T13:52:30;31.60;75.80
31735;DHT22;18313;48.518;9.124;2022-08-01T13:54:58;31.90;75.00
31735;DHT22;18313;48.518;9.124;2022-08-01T13:57:25;31.70;75.20
31735;DHT22;18313;48.518;9.124;2022-08-01T14:00:07;31.40;76.00
31735;DHT22;18313;48.518;9.124;2022-08-01T14:02:36;31.30;76.40
31735;DHT22;18313;48.518;9.124;2022-08-01T14:05:04;31.40;76.20
31735;DHT22;18313;48.518;9.124;2022-08-01T14:07:31;31.50;75.40
31735;DHT22;18313;48.518;9.124;2022-08-01T14:09:58;31.60;76.80
31735;DHT22;18313;48.518;9.124;2022-08-01T14:12:45;31.50;74.50
31735;DHT22;18313;48.518;9.124;2022-08-01T14:15:13;31.40;76.10
31735;DHT22;18313;48.518;9.124;2022-08-01T14:18:01;31.20;76.20
31735;DHT22;18313;48.518;9.124;2022-08-01T14:20:28;31.20;76.00
31735;DHT22;18313;48.518;9.124;2022-08-01T14:22:55;30.90;75.80
31735;DHT22;18313;48.518;9.124;2022-08-01T14:25:22;30.60;76.90
31735;DHT22;18313;48.518;9.124;2022-08-01T14:28:09;30.40;77.10
31735;DHT22;18313;48.518;9.124;2022-08-01T14:30:37;30.30;77.80
31735;DHT22;18313;48.518;9.124;2022-08-01T14:33:04;30.20;78.60
31735;DHT22;18313;48.518;9.124;2022-08-01T14:35:31;30.20;76.70
31735;DHT22;18313;48.518;9.124;2022-08-01T14:38:18;30.20;76.80
31735;DHT22;18313;48.518;9.124;2022-08-01T14:40:57;30.20;77.20
31735;DHT22;18313;48.518;9.124;2022-08-01T14:43:26;30.20;77.00
31735;DHT22;18313;48.518;9.124;2022-08-01T14:46:00;30.10;78.70
31735;DHT22;18313;48.518;9.124;2022-08-01T14:48:27;29.90;81.80
31735;DHT22;18313;48.518;9.124;2022-08-01T14:50:56;29.90;81.20
31735;DHT22;18313;48.518;9.124;2022-08-01T14:53:23;29.80;85.10
31735;DHT22;18313;48.518;9.124;2022-08-01T14:55:50;29.60;85.60
31735;DHT22;18313;48.518;9.124;2022-08-01T14:58:17;29.50;88.00
31735;DHT22;18313;48.518;9.124;2022-08-01T15:00:44;29.60;88.30
31735;DHT22;18313;48.518;9.124;2022-08-01T15:03:12;29.50;85.00
31735;DHT22;18313;48.518;9.124;2022-08-01T15:05:39;29.40;89.10
31735;DHT22;18313;48.518;9.124;2022-08-01T15:08:06;29.40;86.00
31735;DHT22;18313;48.518;9.124;2022-08-01T15:10:33;29.30;87.20
31735;DHT22;18313;48.518;9.124;2022-08-01T15:13:00;29.10;87.20
31735;DHT22;18313;48.518;9.124;2022-08-01T15:15:28;28.90;88.30
31735;DHT22;18313;48.518;9.124;2022-08-01T15:17:56;28.70;87.50
31735;DHT22;18313;48.518;9.124;2022-08-01T15:20:23;28.70;86.80
31735;DHT22;18313;48.518;9.124;2022-08-01T15:22:50;28.50;86.60
31735;DHT22;18313;48.518;9.124;2022-08-01T15:25:17;28.40;87.80
31735;DHT22;18313;48.518;9.124;2022-08-01T15:27:44;28.30;90.30
31735;DHT22;18313;48.518;9.124;2022-08-01T15:30:12;28.40;90.60
31735;DHT22;18313;48.518;9.124;2022-08-01T15:32:38;28.40;89.80
31735;DHT22;18313;48.518;9.124;2022-08-01T15:35:06;28.40;90.20
31735;DHT22;18313;48.518;9.124;2022-08-01T15:37:33;28.20;90.50
31735;DHT22;18313;48.518;9.124;2022-08-01T15:40:06;28.20;90.70
31735;DHT22;18313;48.518;9.124;2022-08-01T15:42:34;28.10;90.90
31735;DHT22;18313;48.518;9.124;2022-08-01T15:45:01;28.00;90.80
31735;DHT22;18313;48.518;9.124;2022-08-01T15:47:29;27.80;91.40
31735;DHT22;18313;48.518;9.124;2022-08-01T15:49:57;27.70;91.30
31735;DHT22;18313;48.518;9.124;2022-08-01T15:52:26;27.70;91.90
31735;DHT22;18313;48.518;9.124;2022-08-01T15:54:57;27.50;92.30
31735;DHT22;18313;48.518;9.124;2022-08-01T15:57:24;27.50;91.80
31735;DHT22;18313;48.518;9.124;2022-08-01T15:59:51;27.40;92.00
31735;DHT22;18313;48.518;9.124;2022-08-01T16:02:19;27.50;91.60
31735;DHT22;18313;48.518;9.124;2022-08-01T16:04:46;27.50;91.60
31735;DHT22;18313;48.518;9.124;2022-08-01T16:07:13;27.50;91.30
31735;DHT22;18313;48.518;9.124;2022-08-01T16:09:40;27.50;91.70
31735;DHT22;18313;48.518;9.124;2022-08-01T16:12:07;27.30;92.00
31735;DHT22;18313;48.518;9.124;2022-08-01T16:14:36;27.10;92.20
31735;DHT22;18313;48.518;9.124;2022-08-01T16:17:03;27.10;92.50
31735;DHT22;18313;48.518;9.124;2022-08-01T16:19:30;27.10;92.40
31735;DHT22;18313;48.518;9.124;2022-08-01T16:21:57;26.90;92.70
31735;DHT22;18313;48.518;9.124;2022-08-01T16:24:25;26.90;92.50
31735;DHT22;18313;48.518;9.124;2022-08-01T16:26:55;27.00;93.00
31735;DHT22;18313;48.518;9.124;2022-08-01T16:29:22;27.10;92.80
31735;DHT22;18313;48.518;9.124;2022-08-01T16:31:49;27.10;92.50
31735;DHT22;18313;48.518;9.124;2022-08-01T16:34:37;27.00;92.70
31735;DHT22;18313;48.518;9.124;2022-08-01T16:37:12;27.00;92.30
31735;DHT22;18313;48.518;9.124;2022-08-01T16:39:40;27.00;92.60
31735;DHT22;18313;48.518;9.124;2022-08-01T16:42:07;27.00;92.90
31735;DHT22;18313;48.518;9.124;2022-08-01T16:44:34;27.10;92.60
31735;DHT22;18313;48.518;9.124;2022-08-01T16:47:02;27.10;92.50
31735;DHT22;18313;48.518;9.124;2022-08-01T16:49:30;27.10;93.00
31735;DHT22;18313;48.518;9.124;2022-08-01T16:52:00;26.90;93.70
31735;DHT22;18313;48.518;9.124;2022-08-01T16:54:27;26.90;94.00
31735;DHT22;18313;48.518;9.124;2022-08-01T16:56:54;26.90;93.40
31735;DHT22;18313;48.518;9.124;2022-08-01T16:59:23;26.80;93.90